createdAt,value
2019-01-25T00:00:06.679Z,-3.14
2019-01-25T00:01:06.640Z,-3.21
2019-01-25T00:02:06.601Z,-3.17
2019-01-25T00:03:10.371Z,-3.10
2019-01-25T00:04:06.522Z,-3.27
2019-01-25T00:05:06.484Z,-3.21
2019-01-25T00:06:06.449Z,-3.20
2019-01-25T00:07:06.408Z,-3.21
2019-01-25T00:08:06.367Z,-3.23
2019-01-25T00:09:06.329Z,-3.24
2019-01-25T00:10:06.289Z,-3.30
2019-01-25T00:11:06.251Z,-3.33
2019-01-25T00:12:06.211Z,-3.30
2019-01-25T00:13:06.175Z,-3.25
2019-01-25T00:14:06.134Z,-3.35
2019-01-25T00:15:06.096Z,-3.35
2019-01-25T00:16:06.056Z,-3.36
2019-01-25T00:17:06.030Z,-3.31
2019-01-25T00:18:05.979Z,-3.33
2019-01-25T00:19:05.940Z,-3.33
2019-01-25T00:20:05.966Z,-3.36
2019-01-25T00:21:05.861Z,-3.30
2019-01-25T00:22:05.825Z,-3.36
2019-01-25T00:23:05.784Z,-3.31
2019-01-25T00:24:05.746Z,-3.31
2019-01-25T00:25:05.762Z,-3.35
2019-01-25T00:26:05.669Z,-3.31
2019-01-25T00:27:05.631Z,-3.21
2019-01-25T00:28:05.591Z,-3.27
2019-01-25T00:29:05.552Z,-3.23
2019-01-25T00:30:05.512Z,-3.18
2019-01-25T00:31:05.475Z,-3.24
2019-01-25T00:32:05.434Z,-3.31
2019-01-25T00:33:05.396Z,-3.35
2019-01-25T00:34:05.358Z,-3.23
2019-01-25T00:35:05.319Z,-3.33
2019-01-25T00:36:05.281Z,-3.24
2019-01-25T00:37:05.241Z,-3.30
2019-01-25T00:38:05.205Z,-3.25
2019-01-25T00:39:05.164Z,-3.35
2019-01-25T00:40:06.394Z,-3.36
2019-01-25T00:41:05.086Z,-3.31
2019-01-25T00:42:05.049Z,-3.30
2019-01-25T00:43:05.011Z,-3.35
2019-01-25T00:44:04.970Z,-3.30
2019-01-25T00:45:04.934Z,-3.30
2019-01-25T00:46:04.893Z,-3.33
2019-01-25T00:47:04.854Z,-3.33
2019-01-25T00:48:04.814Z,-3.39
2019-01-25T00:49:04.777Z,-3.31
2019-01-25T00:50:04.737Z,-3.35
2019-01-25T00:51:04.698Z,-3.31
2019-01-25T00:52:04.660Z,-3.31
2019-01-25T00:53:04.622Z,-3.30
2019-01-25T00:54:04.582Z,-3.35
2019-01-25T00:55:04.543Z,-3.35
2019-01-25T00:56:04.506Z,-3.39
2019-01-25T00:57:04.466Z,-3.35
2019-01-25T00:58:04.430Z,-3.36
2019-01-25T00:59:04.388Z,-3.38
2019-01-25T01:00:04.350Z,-3.42
2019-01-25T01:01:04.312Z,-3.33
2019-01-25T01:02:04.274Z,-3.33
2019-01-25T01:03:04.234Z,-3.33
2019-01-25T01:04:04.195Z,-3.31
2019-01-25T01:05:04.158Z,-3.41
2019-01-25T01:06:04.119Z,-3.31
2019-01-25T01:07:04.080Z,-3.31
2019-01-25T01:08:04.040Z,-3.41
2019-01-25T01:09:04.003Z,-3.31
2019-01-25T01:10:03.963Z,-3.33
2019-01-25T01:11:03.923Z,-3.36
2019-01-25T01:12:03.886Z,-3.33
2019-01-25T01:13:03.849Z,-3.33
2019-01-25T01:14:03.808Z,-3.41
2019-01-25T01:15:03.769Z,-3.33
2019-01-25T01:16:03.730Z,-3.36
2019-01-25T01:17:03.692Z,-3.30
2019-01-25T01:18:03.653Z,-3.35
2019-01-25T01:19:03.613Z,-3.36
2019-01-25T01:20:03.575Z,-3.35
2019-01-25T01:21:03.536Z,-3.39
2019-01-25T01:22:03.502Z,-3.38
2019-01-25T01:23:03.459Z,-3.39
2019-01-25T01:24:03.421Z,-3.41
2019-01-25T01:25:03.385Z,-3.36
2019-01-25T01:26:03.343Z,-3.39
2019-01-25T01:27:03.303Z,-3.41
2019-01-25T01:28:03.264Z,-3.46
2019-01-25T01:29:03.227Z,-3.49
2019-01-25T01:30:03.186Z,-3.42
2019-01-25T01:31:03.146Z,-3.45
2019-01-25T01:32:03.110Z,-3.41
2019-01-25T01:33:03.070Z,-3.43
2019-01-25T01:34:03.032Z,-3.46
2019-01-25T01:35:02.991Z,-3.43
2019-01-25T01:36:02.987Z,-3.45
2019-01-25T01:37:02.914Z,-3.46
2019-01-25T01:38:02.875Z,-3.42
2019-01-25T01:39:02.837Z,-3.45
2019-01-25T01:40:02.799Z,-3.45
2019-01-25T01:41:02.758Z,-3.46
2019-01-25T01:42:02.720Z,-3.46
2019-01-25T01:43:02.682Z,-3.45
2019-01-25T01:44:02.640Z,-3.46
2019-01-25T01:45:02.603Z,-3.42
2019-01-25T01:46:02.563Z,-3.45
2019-01-25T01:47:02.525Z,-3.48
2019-01-25T01:48:02.487Z,-3.46
2019-01-25T01:49:02.449Z,-3.48
2019-01-25T01:50:02.409Z,-3.52
2019-01-25T01:51:02.370Z,-3.46
2019-01-25T01:52:02.331Z,-3.45
2019-01-25T01:53:02.291Z,-3.42
2019-01-25T01:54:02.255Z,-3.48
2019-01-25T01:55:02.213Z,-3.49
2019-01-25T01:56:02.176Z,-3.46
2019-01-25T01:57:02.138Z,-3.43
2019-01-25T01:58:02.098Z,-3.41
2019-01-25T01:59:02.058Z,-3.45
2019-01-25T02:00:02.026Z,-3.49
2019-01-25T02:01:01.981Z,-3.42
2019-01-25T02:02:01.943Z,-3.42
2019-01-25T02:03:01.903Z,-3.46
2019-01-25T02:04:01.862Z,-3.49
2019-01-25T02:05:01.825Z,-3.48
2019-01-25T02:06:01.786Z,-3.49
2019-01-25T02:07:01.746Z,-3.56
2019-01-25T02:08:01.709Z,-3.57
2019-01-25T02:09:01.672Z,-3.54
2019-01-25T02:10:01.635Z,-3.49
2019-01-25T02:11:01.591Z,-3.52
2019-01-25T02:12:01.552Z,-3.54
2019-01-25T02:13:01.513Z,-3.49
2019-01-25T02:14:01.474Z,-3.54
2019-01-25T02:15:01.435Z,-3.53
2019-01-25T02:16:01.395Z,-3.54
2019-01-25T02:17:01.358Z,-3.54
2019-01-25T02:18:01.319Z,-3.54
2019-01-25T02:19:01.279Z,-3.54
2019-01-25T02:20:01.243Z,-3.59
2019-01-25T02:21:01.202Z,-3.56
2019-01-25T02:22:01.164Z,-3.56
2019-01-25T02:23:01.125Z,-3.57
2019-01-25T02:24:01.085Z,-3.52
2019-01-25T02:25:01.046Z,-3.53
2019-01-25T02:26:01.007Z,-3.57
2019-01-25T02:27:00.968Z,-3.54
2019-01-25T02:28:00.929Z,-3.53
2019-01-25T02:29:00.890Z,-3.52
2019-01-25T02:30:00.858Z,-3.56
2019-01-25T02:31:00.819Z,-3.54
2019-01-25T02:32:00.774Z,-3.53
2019-01-25T02:33:00.737Z,-3.62
2019-01-25T02:34:00.821Z,-3.57
2019-01-25T02:35:00.656Z,-3.54
2019-01-25T02:36:00.618Z,-3.56
2019-01-25T02:37:00.580Z,-3.59
2019-01-25T02:38:00.539Z,-3.60
2019-01-25T02:39:00.501Z,-3.59
2019-01-25T02:40:00.466Z,-3.63
2019-01-25T02:41:00.427Z,-3.54
2019-01-25T02:42:00.384Z,-3.56
2019-01-25T02:43:00.345Z,-3.54
2019-01-25T02:44:00.307Z,-3.67
2019-01-25T02:45:00.293Z,-3.57
2019-01-25T02:46:00.228Z,-3.69
2019-01-25T02:47:00.189Z,-3.56
2019-01-25T02:48:00.152Z,-3.59
2019-01-25T02:49:00.112Z,-3.60
2019-01-25T02:50:00.260Z,-3.53
2019-01-25T02:51:00.034Z,-3.56
2019-01-25T02:51:59.994Z,-3.62
2019-01-25T02:53:03.823Z,-3.53
2019-01-25T02:53:59.920Z,-3.54
2019-01-25T02:54:59.886Z,-3.53
2019-01-25T02:55:59.840Z,-3.62
2019-01-25T02:56:59.800Z,-3.59
2019-01-25T02:57:59.763Z,-3.57
2019-01-25T02:58:59.724Z,-3.59
2019-01-25T02:59:59.682Z,-3.54
2019-01-25T03:00:59.645Z,-3.59
2019-01-25T03:01:59.606Z,-3.62
2019-01-25T03:02:59.574Z,-3.49
2019-01-25T03:03:59.526Z,-3.49
2019-01-25T03:04:59.488Z,-3.57
2019-01-25T03:05:59.451Z,-3.57
2019-01-25T03:06:59.410Z,-3.56
2019-01-25T03:07:59.371Z,-3.63
2019-01-25T03:08:59.333Z,-3.57
2019-01-25T03:09:59.293Z,-3.57
2019-01-25T03:10:59.256Z,-3.57
2019-01-25T03:11:59.215Z,-3.53
2019-01-25T03:12:59.182Z,-3.57
2019-01-25T03:13:59.137Z,-3.53
2019-01-25T03:14:59.099Z,-3.56
2019-01-25T03:15:59.060Z,-3.57
2019-01-25T03:16:59.019Z,-3.53
2019-01-25T03:17:58.981Z,-3.54
2019-01-25T03:18:58.947Z,-3.54
2019-01-25T03:19:58.903Z,-3.57
2019-01-25T03:20:58.863Z,-3.59
2019-01-25T03:21:58.826Z,-3.56
2019-01-25T03:22:58.784Z,-3.62
2019-01-25T03:23:58.747Z,-3.62
2019-01-25T03:24:58.707Z,-3.59
2019-01-25T03:25:58.713Z,-3.54
2019-01-25T03:26:58.631Z,-3.67
2019-01-25T03:27:58.601Z,-3.60
2019-01-25T03:28:58.552Z,-3.63
2019-01-25T03:29:58.512Z,-3.64
2019-01-25T03:30:58.474Z,-3.56
2019-01-25T03:31:58.446Z,-3.63
2019-01-25T03:32:58.396Z,-3.62
2019-01-25T03:33:58.358Z,-3.66
2019-01-25T03:34:58.317Z,-3.62
2019-01-25T03:35:58.281Z,-3.60
2019-01-25T03:36:58.239Z,-3.66
2019-01-25T03:37:58.201Z,-3.64
2019-01-25T03:38:58.162Z,-3.69
2019-01-25T03:39:58.122Z,-3.57
2019-01-25T03:40:58.087Z,-3.56
2019-01-25T03:41:58.047Z,-3.56
2019-01-25T03:42:58.007Z,-3.56
2019-01-25T03:43:57.970Z,-3.57
2019-01-25T03:44:57.927Z,-3.63
2019-01-25T03:45:57.889Z,-3.62
2019-01-25T03:46:57.852Z,-3.56
2019-01-25T03:47:57.817Z,-3.59
2019-01-25T03:48:57.776Z,-3.53
2019-01-25T03:49:57.734Z,-3.60
2019-01-25T03:50:57.695Z,-3.60
2019-01-25T03:51:57.667Z,-3.59
2019-01-25T03:52:57.620Z,-3.69
2019-01-25T03:53:57.577Z,-3.69
2019-01-25T03:54:57.538Z,-3.57
2019-01-25T03:55:57.501Z,-3.59
2019-01-25T03:56:57.463Z,-3.57
2019-01-25T03:57:57.427Z,-3.59
2019-01-25T03:58:57.384Z,-3.56
2019-01-25T03:59:57.344Z,-3.57
2019-01-25T04:00:57.307Z,-3.59
2019-01-25T04:01:57.266Z,-3.62
2019-01-25T04:02:57.227Z,-3.64
2019-01-25T04:03:57.188Z,-3.60
2019-01-25T04:04:57.151Z,-3.54
2019-01-25T04:05:57.111Z,-3.60
2019-01-25T04:06:57.072Z,-3.62
2019-01-25T04:07:57.033Z,-3.53
2019-01-25T04:08:56.993Z,-3.63
2019-01-25T04:09:56.956Z,-3.69
2019-01-25T04:11:03.485Z,-3.66
2019-01-25T04:11:56.876Z,-3.53
2019-01-25T04:12:56.839Z,-3.64
2019-01-25T04:13:56.798Z,-3.66
2019-01-25T04:14:56.758Z,-3.49
2019-01-25T04:15:56.762Z,-3.60
2019-01-25T04:16:56.681Z,-3.64
2019-01-25T04:17:56.644Z,-3.63
2019-01-25T04:18:56.602Z,-3.63
2019-01-25T04:19:56.563Z,-3.62
2019-01-25T04:20:56.528Z,-3.66
2019-01-25T04:21:56.489Z,-3.72
2019-01-25T04:22:56.447Z,-3.69
2019-01-25T04:23:56.407Z,-3.69
2019-01-25T04:24:56.369Z,-3.72
2019-01-25T04:25:56.330Z,-3.69
2019-01-25T04:26:56.289Z,-3.76
2019-01-25T04:27:56.252Z,-3.76
2019-01-25T04:28:56.216Z,-3.79
2019-01-25T04:29:56.173Z,-3.82
2019-01-25T04:30:56.136Z,-3.82
2019-01-25T04:31:56.095Z,-3.81
2019-01-25T04:32:56.059Z,-3.78
2019-01-25T04:33:56.017Z,-3.75
2019-01-25T04:34:55.977Z,-3.72
2019-01-25T04:35:55.947Z,-3.76
2019-01-25T04:36:55.903Z,-3.82
2019-01-25T04:37:55.863Z,-3.81
2019-01-25T04:38:55.823Z,-3.78
2019-01-25T04:39:55.783Z,-3.79
2019-01-25T04:40:55.747Z,-3.76
2019-01-25T04:41:55.714Z,-3.82
2019-01-25T04:42:55.666Z,-3.81
2019-01-25T04:43:55.627Z,-3.75
2019-01-25T04:44:55.589Z,-3.76
2019-01-25T04:45:55.551Z,-3.82
2019-01-25T04:46:55.512Z,-3.71
2019-01-25T04:47:55.472Z,-3.72
2019-01-25T04:48:55.436Z,-3.71
2019-01-25T04:49:55.395Z,-3.60
2019-01-25T04:50:55.357Z,-3.67
2019-01-25T04:51:55.314Z,-3.63
2019-01-25T04:52:55.415Z,-3.66
2019-01-25T04:53:55.245Z,-3.64
2019-01-25T04:54:55.198Z,-3.64
2019-01-25T04:55:55.160Z,-3.66
2019-01-25T04:56:55.122Z,-3.64
2019-01-25T04:57:55.083Z,-3.69
2019-01-25T04:58:55.042Z,-3.66
2019-01-25T04:59:55.107Z,-3.81
2019-01-25T05:00:54.967Z,-3.81
2019-01-25T05:01:54.928Z,-3.79
2019-01-25T05:02:54.886Z,-3.81
2019-01-25T05:03:54.846Z,-3.81
2019-01-25T05:04:54.807Z,-3.79
2019-01-25T05:05:54.771Z,-3.81
2019-01-25T05:06:54.732Z,-3.81
2019-01-25T05:07:54.691Z,-3.75
2019-01-25T05:08:54.652Z,-3.76
2019-01-25T05:09:54.615Z,-3.72
2019-01-25T05:10:54.575Z,-3.71
2019-01-25T05:11:54.536Z,-3.66
2019-01-25T05:12:54.499Z,-3.69
2019-01-25T05:13:54.464Z,-3.69
2019-01-25T05:14:54.418Z,-3.78
2019-01-25T05:15:54.380Z,-3.79
2019-01-25T05:16:54.347Z,-3.78
2019-01-25T05:17:54.303Z,-3.78
2019-01-25T05:18:54.264Z,-3.81
2019-01-25T05:19:54.225Z,-3.81
2019-01-25T05:20:54.186Z,-3.69
2019-01-25T05:21:54.147Z,-3.69
2019-01-25T05:22:54.105Z,-3.78
2019-01-25T05:23:54.067Z,-3.72
2019-01-25T05:24:54.029Z,-3.71
2019-01-25T05:25:53.990Z,-3.78
2019-01-25T05:26:53.950Z,-3.69
2019-01-25T05:27:53.912Z,-3.78
2019-01-25T05:28:53.874Z,-3.69
2019-01-25T05:29:53.834Z,-3.81
2019-01-25T05:30:53.799Z,-3.79
2019-01-25T05:31:53.755Z,-3.82
2019-01-25T05:32:53.725Z,-3.76
2019-01-25T05:33:53.680Z,-3.75
2019-01-25T05:34:53.638Z,-3.79
2019-01-25T05:35:53.600Z,-3.82
2019-01-25T05:36:53.561Z,-3.81
2019-01-25T05:37:53.521Z,-3.76
2019-01-25T05:38:53.483Z,-3.82
2019-01-25T05:39:53.444Z,-3.79
2019-01-25T05:40:53.403Z,-3.75
2019-01-25T05:41:53.366Z,-3.78
2019-01-25T05:42:53.327Z,-3.72
2019-01-25T05:43:53.288Z,-3.82
2019-01-25T05:44:53.247Z,-3.82
2019-01-25T05:45:53.359Z,-3.81
2019-01-25T05:46:53.170Z,-3.78
2019-01-25T05:47:53.131Z,-3.81
2019-01-25T05:48:53.092Z,-3.79
2019-01-25T05:49:53.052Z,-3.86
2019-01-25T05:50:53.014Z,-3.82
2019-01-25T05:51:52.974Z,-3.78
2019-01-25T05:52:52.940Z,-3.78
2019-01-25T05:53:52.904Z,-3.79
2019-01-25T05:54:52.857Z,-3.78
2019-01-25T05:55:52.818Z,-3.82
2019-01-25T05:56:52.781Z,-3.78
2019-01-25T05:57:52.740Z,-3.78
2019-01-25T05:58:52.700Z,-3.79
2019-01-25T05:59:52.662Z,-3.75
2019-01-25T06:00:52.623Z,-3.75
2019-01-25T06:01:52.589Z,-3.78
2019-01-25T06:02:52.543Z,-3.79
2019-01-25T06:03:52.506Z,-3.78
2019-01-25T06:04:52.465Z,-3.81
2019-01-25T06:05:52.428Z,-3.81
2019-01-25T06:06:52.386Z,-3.86
2019-01-25T06:07:52.348Z,-3.85
2019-01-25T06:08:52.309Z,-3.83
2019-01-25T06:09:52.278Z,-3.93
2019-01-25T06:10:52.231Z,-3.82
2019-01-25T06:11:52.191Z,-3.79
2019-01-25T06:12:52.153Z,-3.86
2019-01-25T06:13:52.116Z,-3.78
2019-01-25T06:14:52.076Z,-3.88
2019-01-25T06:15:52.035Z,-3.88
2019-01-25T06:16:51.997Z,-3.83
2019-01-25T06:17:51.958Z,-3.78
2019-01-25T06:18:51.918Z,-3.79
2019-01-25T06:19:51.879Z,-3.88
2019-01-25T06:20:51.841Z,-3.90
2019-01-25T06:21:51.803Z,-3.90
2019-01-25T06:22:51.762Z,-3.83
2019-01-25T06:23:51.724Z,-3.85
2019-01-25T06:24:51.684Z,-3.83
2019-01-25T06:25:51.644Z,-3.91
2019-01-25T06:26:51.606Z,-3.83
2019-01-25T06:27:51.565Z,-3.83
2019-01-25T06:28:51.528Z,-3.90
2019-01-25T06:29:51.489Z,-3.93
2019-01-25T06:30:51.447Z,-3.90
2019-01-25T06:31:51.410Z,-3.94
2019-01-25T06:32:51.371Z,-3.81
2019-01-25T06:33:51.332Z,-3.79
2019-01-25T06:34:51.291Z,-3.76
2019-01-25T06:35:51.253Z,-3.91
2019-01-25T06:36:51.214Z,-3.79
2019-01-25T06:37:51.173Z,-3.93
2019-01-25T06:38:51.135Z,-3.97
2019-01-25T06:39:51.095Z,-3.93
2019-01-25T06:40:51.056Z,-3.79
2019-01-25T06:41:51.017Z,-3.88
2019-01-25T06:42:50.977Z,-3.76
2019-01-25T06:43:50.938Z,-3.85
2019-01-25T06:44:50.901Z,-3.79
2019-01-25T06:45:50.860Z,-3.81
2019-01-25T06:46:50.821Z,-3.82
2019-01-25T06:47:50.785Z,-3.78
2019-01-25T06:48:50.741Z,-3.75
2019-01-25T06:49:50.703Z,-3.86
2019-01-25T06:50:50.665Z,-3.93
2019-01-25T06:51:50.625Z,-3.82
2019-01-25T06:52:50.584Z,-3.91
2019-01-25T06:53:50.547Z,-3.88
2019-01-25T06:54:50.506Z,-3.86
2019-01-25T06:55:50.469Z,-3.83
2019-01-25T06:56:50.429Z,-3.82
2019-01-25T06:57:50.390Z,-3.76
2019-01-25T06:58:50.349Z,-3.82
2019-01-25T06:59:50.310Z,-3.81
2019-01-25T07:00:50.271Z,-3.83
2019-01-25T07:01:50.233Z,-3.94
2019-01-25T07:02:50.192Z,-3.79
2019-01-25T07:03:50.153Z,-3.76
2019-01-25T07:04:50.114Z,-3.91
2019-01-25T07:05:50.076Z,-3.97
2019-01-25T07:06:50.037Z,-3.79
2019-01-25T07:07:49.996Z,-3.85
2019-01-25T07:08:49.960Z,-3.96
2019-01-25T07:09:49.920Z,-3.96
2019-01-25T07:10:49.878Z,-3.86
2019-01-25T07:11:51.699Z,-3.85
2019-01-25T07:12:49.801Z,-3.94
2019-01-25T07:13:49.762Z,-3.88
2019-01-25T07:14:49.723Z,-3.97
2019-01-25T07:15:49.682Z,-3.94
2019-01-25T07:16:49.643Z,-4.00
2019-01-25T07:17:49.606Z,-4.04
2019-01-25T07:18:49.565Z,-3.99
2019-01-25T07:19:49.526Z,-3.97
2019-01-25T07:20:49.487Z,-4.06
2019-01-25T07:21:49.448Z,-3.99
2019-01-25T07:22:49.410Z,-4.03
2019-01-25T07:23:49.368Z,-4.00
2019-01-25T07:24:49.331Z,-4.04
2019-01-25T07:25:49.293Z,-4.01
2019-01-25T07:26:49.251Z,-4.04
2019-01-25T07:27:49.211Z,-4.00
2019-01-25T07:28:49.172Z,-4.00
2019-01-25T07:29:49.152Z,-4.01
2019-01-25T07:30:49.119Z,-4.01
2019-01-25T07:31:49.064Z,-4.01
2019-01-25T07:32:49.016Z,-3.97
2019-01-25T07:33:49.040Z,-4.03
2019-01-25T07:34:48.937Z,-4.00
2019-01-25T07:35:48.898Z,-3.99
2019-01-25T07:36:48.859Z,-4.04
2019-01-25T07:37:48.834Z,-4.00
2019-01-25T07:38:48.780Z,-3.96
2019-01-25T07:39:48.741Z,-3.96
2019-01-25T07:40:48.704Z,-3.96
2019-01-25T07:41:48.677Z,-3.88
2019-01-25T07:42:48.669Z,-3.91
2019-01-25T07:43:48.588Z,-3.96
2019-01-25T07:44:48.730Z,-3.91
2019-01-25T07:45:48.507Z,-3.91
2019-01-25T07:46:48.482Z,-3.91
2019-01-25T07:47:48.428Z,-3.94
2019-01-25T07:48:48.390Z,-3.94
2019-01-25T07:49:48.350Z,-3.81
2019-01-25T07:50:48.312Z,-3.83
2019-01-25T07:51:48.272Z,-3.79
2019-01-25T07:52:48.245Z,-3.71
2019-01-25T07:53:48.351Z,-3.79
2019-01-25T07:54:48.154Z,-3.81
2019-01-25T07:55:48.117Z,-3.67
2019-01-25T07:56:48.080Z,-3.66
2019-01-25T07:57:48.038Z,-3.62
2019-01-25T07:58:48.045Z,-3.66
2019-01-25T07:59:47.985Z,-3.54
2019-01-25T08:00:47.931Z,-3.67
2019-01-25T08:01:47.928Z,-3.53
2019-01-25T08:02:47.962Z,-3.53
2019-01-25T08:03:47.809Z,-3.56
2019-01-25T08:04:47.765Z,-3.56
2019-01-25T08:05:47.725Z,-3.59
2019-01-25T08:06:47.693Z,-3.45
2019-01-25T08:07:47.647Z,-3.46
2019-01-25T08:08:47.608Z,-3.46
2019-01-25T08:09:47.572Z,-3.35
2019-01-25T08:10:47.529Z,-3.21
2019-01-25T08:11:47.550Z,-3.17
2019-01-25T08:12:47.518Z,-3.09
2019-01-25T08:13:47.414Z,-3.14
2019-01-25T08:14:47.378Z,-3.00
2019-01-25T08:15:47.501Z,-2.89
2019-01-25T08:16:47.297Z,-2.81
2019-01-25T08:17:47.258Z,-2.78
2019-01-25T08:18:47.229Z,-2.68
2019-01-25T08:19:47.179Z,-2.77
2019-01-25T08:20:47.162Z,-2.61
2019-01-25T08:21:47.109Z,-2.56
2019-01-25T08:22:47.063Z,-2.58
2019-01-25T08:23:47.059Z,-2.49
2019-01-25T08:24:47.005Z,-2.56
2019-01-25T08:25:47.001Z,-2.50
2019-01-25T08:26:46.907Z,-2.49
2019-01-25T08:27:46.888Z,-2.39
2019-01-25T08:28:46.887Z,-2.29
2019-01-25T08:29:46.803Z,-2.24
2019-01-25T08:30:46.812Z,-2.15
2019-01-25T08:31:47.098Z,-2.26
2019-01-25T08:32:46.677Z,-2.29
2019-01-25T08:33:46.667Z,-2.46
2019-01-25T08:34:46.598Z,-2.45
2019-01-25T08:35:46.579Z,-2.34
2019-01-25T08:36:46.547Z,-2.42
2019-01-25T08:37:46.509Z,-2.29
2019-01-25T08:38:46.442Z,-2.23
2019-01-25T08:39:46.405Z,-2.18
2019-01-25T08:40:46.368Z,-2.20
2019-01-25T08:41:46.374Z,-2.23
2019-01-25T08:42:46.290Z,-2.24
2019-01-25T08:43:46.252Z,-2.42
2019-01-25T08:44:46.213Z,-2.50
2019-01-25T08:45:46.205Z,-2.49
2019-01-25T08:46:46.135Z,-2.70
2019-01-25T08:47:46.147Z,-2.71
2019-01-25T08:48:46.114Z,-2.67
2019-01-25T08:49:46.030Z,-2.68
2019-01-25T08:50:46.004Z,-2.64
2019-01-25T08:51:46.003Z,-2.53
2019-01-25T08:52:45.926Z,-2.67
2019-01-25T08:53:45.867Z,-2.68
2019-01-25T08:54:45.828Z,-2.78
2019-01-25T08:55:45.803Z,-2.71
2019-01-25T08:56:45.777Z,-2.68
2019-01-25T08:57:45.715Z,-2.67
2019-01-25T08:58:45.681Z,-2.64
2019-01-25T08:59:45.904Z,-2.78
2019-01-25T09:00:45.597Z,-2.67
2019-01-25T09:01:45.559Z,-2.64
2019-01-25T09:02:45.519Z,-2.61
2019-01-25T09:03:45.481Z,-2.64
2019-01-25T09:04:45.442Z,-2.60
2019-01-25T09:05:45.757Z,-2.55
2019-01-25T09:06:45.365Z,-2.63
2019-01-25T09:07:45.327Z,-2.61
2019-01-25T09:08:45.289Z,-2.70
2019-01-25T09:09:45.250Z,-2.67
2019-01-25T09:10:45.211Z,-2.56
2019-01-25T09:11:45.173Z,-2.55
2019-01-25T09:12:45.135Z,-2.55
2019-01-25T09:13:45.103Z,-2.43
2019-01-25T09:14:45.057Z,-2.45
2019-01-25T09:15:45.019Z,-2.48
2019-01-25T09:16:44.982Z,-2.40
2019-01-25T09:17:44.941Z,-2.37
2019-01-25T09:18:44.903Z,-2.29
2019-01-25T09:19:44.869Z,-2.35
2019-01-25T09:20:44.835Z,-2.35
2019-01-25T09:21:44.790Z,-2.34
2019-01-25T09:22:44.752Z,-2.20
2019-01-25T09:23:44.712Z,-2.26
2019-01-25T09:24:44.676Z,-2.21
2019-01-25T09:25:44.637Z,-2.20
2019-01-25T09:26:44.597Z,-2.26
2019-01-25T09:27:44.560Z,-2.32
2019-01-25T09:28:44.524Z,-2.29
2019-01-25T09:29:44.483Z,-2.24
2019-01-25T09:30:44.448Z,-2.06
2019-01-25T09:31:44.408Z,-2.02
2019-01-25T09:32:44.370Z,-1.82
2019-01-25T09:33:44.334Z,-1.90
2019-01-25T09:34:44.292Z,-2.03
2019-01-25T09:35:44.254Z,-2.08
2019-01-25T09:36:44.217Z,-2.08
2019-01-25T09:37:44.178Z,-2.06
2019-01-25T09:38:44.138Z,-2.05
2019-01-25T09:39:44.101Z,-2.06
2019-01-25T09:40:44.063Z,-2.10
2019-01-25T09:41:44.026Z,-2.09
2019-01-25T09:42:43.988Z,-1.97
2019-01-25T09:43:43.948Z,-1.85
2019-01-25T09:44:43.911Z,-1.85
2019-01-25T09:45:43.877Z,-1.91
2019-01-25T09:46:43.834Z,-1.80
2019-01-25T09:47:43.796Z,-1.88
2019-01-25T09:48:43.759Z,-1.85
2019-01-25T09:49:43.720Z,-1.77
2019-01-25T09:50:43.681Z,-1.74
2019-01-25T09:51:43.644Z,-1.72
2019-01-25T09:52:43.606Z,-1.72
2019-01-25T09:53:43.568Z,-1.69
2019-01-25T09:54:43.530Z,-1.56
2019-01-25T09:55:43.495Z,-1.55
2019-01-25T09:56:43.455Z,-1.55
2019-01-25T09:57:43.417Z,-1.51
2019-01-25T09:58:43.379Z,-1.52
2019-01-25T09:59:43.342Z,-1.59
2019-01-25T10:00:43.305Z,-1.59
2019-01-25T10:01:43.267Z,-1.52
2019-01-25T10:02:43.227Z,-1.70
2019-01-25T10:03:43.190Z,-1.66
2019-01-25T10:04:43.153Z,-1.72
2019-01-25T10:05:43.117Z,-1.74
2019-01-25T10:06:43.077Z,-1.66
2019-01-25T10:07:43.041Z,-1.64
2019-01-25T10:08:43.001Z,-1.61
2019-01-25T10:09:42.964Z,-1.49
2019-01-25T10:10:42.927Z,-1.43
2019-01-25T10:11:42.894Z,-1.35
2019-01-25T10:12:43.442Z,-1.43
2019-01-25T10:13:42.816Z,-1.31
2019-01-25T10:14:42.775Z,-1.27
2019-01-25T10:15:42.740Z,-1.12
2019-01-25T10:16:42.701Z,-1.09
2019-01-25T10:17:42.665Z,-1.05
2019-01-25T10:18:42.627Z,-1.23
2019-01-25T10:19:42.619Z,-1.09
2019-01-25T10:20:42.551Z,-1.05
2019-01-25T10:21:42.514Z,-1.09
2019-01-25T10:22:42.476Z,-0.86
2019-01-25T10:23:42.438Z,-0.83
2019-01-25T10:24:42.402Z,-0.95
2019-01-25T10:25:42.366Z,-1.12
2019-01-25T10:26:42.330Z,-1.31
2019-01-25T10:27:42.290Z,-1.28
2019-01-25T10:28:42.252Z,-1.33
2019-01-25T10:29:42.215Z,-1.23
2019-01-25T10:30:42.227Z,-1.22
2019-01-25T10:31:42.140Z,-1.38
2019-01-25T10:32:42.105Z,-1.55
2019-01-25T10:33:42.066Z,-1.55
2019-01-25T10:34:42.029Z,-1.51
2019-01-25T10:35:41.991Z,-1.56
2019-01-25T10:36:41.953Z,-1.40
2019-01-25T10:37:41.917Z,-1.20
2019-01-25T10:38:41.880Z,-1.19
2019-01-25T10:39:41.842Z,-0.99
2019-01-25T10:40:41.804Z,-1.19
2019-01-25T10:41:41.769Z,-1.13
2019-01-25T10:42:45.631Z,-1.20
2019-01-25T10:43:41.694Z,-1.12
2019-01-25T10:44:41.657Z,-1.20
2019-01-25T10:45:41.618Z,-1.19
2019-01-25T10:46:41.581Z,-1.12
2019-01-25T10:47:41.544Z,-1.05
2019-01-25T10:48:41.507Z,-1.01
2019-01-25T10:49:41.470Z,-0.86
2019-01-25T10:50:41.433Z,-0.80
2019-01-25T10:51:41.397Z,-0.95
2019-01-25T10:52:41.358Z,-0.98
2019-01-25T10:53:41.321Z,-1.01
2019-01-25T10:54:41.284Z,-1.02
2019-01-25T10:55:41.247Z,-1.15
2019-01-25T10:56:41.984Z,-1.19
2019-01-25T10:57:41.173Z,-1.31
2019-01-25T10:58:41.136Z,-1.33
2019-01-25T10:59:41.099Z,-1.34
2019-01-25T11:00:41.064Z,-1.30
2019-01-25T11:01:41.025Z,-1.31
2019-01-25T11:02:40.989Z,-1.10
2019-01-25T11:03:40.950Z,-0.86
2019-01-25T11:04:40.914Z,-0.75
2019-01-25T11:05:40.877Z,-0.58
2019-01-25T11:06:40.839Z,-0.31
2019-01-25T11:07:40.801Z,-0.31
2019-01-25T11:08:40.765Z,-0.16
2019-01-25T11:09:40.729Z,-0.21
2019-01-25T11:10:40.691Z,0.08
2019-01-25T11:11:40.655Z,-0.16
2019-01-25T11:12:40.618Z,-0.04
2019-01-25T11:13:40.582Z,-0.22
2019-01-25T11:14:40.544Z,-0.28
2019-01-25T11:15:40.507Z,-0.39
2019-01-25T11:16:40.471Z,-0.39
2019-01-25T11:17:40.434Z,-0.62
2019-01-25T11:18:40.396Z,-0.67
2019-01-25T11:19:40.360Z,-0.44
2019-01-25T11:20:40.324Z,-0.34
2019-01-25T11:21:40.288Z,-0.31
2019-01-25T11:22:40.249Z,0.07
2019-01-25T11:23:40.213Z,0.46
2019-01-25T11:24:40.178Z,0.58
2019-01-25T11:25:40.140Z,0.94
2019-01-25T11:26:40.105Z,1.22
2019-01-25T11:27:40.067Z,1.22
2019-01-25T11:28:40.032Z,0.97
2019-01-25T11:29:39.995Z,0.79
2019-01-25T11:30:39.956Z,0.62
2019-01-25T11:31:39.923Z,0.41
2019-01-25T11:32:39.884Z,0.33
2019-01-25T11:33:39.851Z,0.23
2019-01-25T11:34:39.810Z,0.10
2019-01-25T11:35:39.774Z,0.02
2019-01-25T11:36:39.738Z,-0.28
2019-01-25T11:37:39.702Z,-0.28
2019-01-25T11:38:39.663Z,-0.37
2019-01-25T11:39:39.629Z,-0.61
2019-01-25T11:40:39.591Z,-0.65
2019-01-25T11:41:39.553Z,-0.82
2019-01-25T11:42:39.517Z,-0.86
2019-01-25T11:43:39.480Z,-0.95
2019-01-25T11:44:39.443Z,-1.07
2019-01-25T11:45:39.406Z,-1.15
2019-01-25T11:46:39.369Z,-1.23
2019-01-25T11:47:39.332Z,-1.15
2019-01-25T11:48:39.300Z,-1.20
2019-01-25T11:49:39.259Z,-1.22
2019-01-25T11:50:39.222Z,-1.20
2019-01-25T11:51:39.183Z,-1.09
2019-01-25T11:52:39.149Z,-1.04
2019-01-25T11:53:39.110Z,-0.95
2019-01-25T11:54:39.072Z,-1.04
2019-01-25T11:55:39.037Z,-1.05
2019-01-25T11:56:39.003Z,-1.13
2019-01-25T11:57:38.968Z,-1.16
2019-01-25T11:58:38.926Z,-1.07
2019-01-25T11:59:39.140Z,-1.22
2019-01-25T12:00:38.852Z,-1.19
2019-01-25T12:01:38.815Z,-1.16
2019-01-25T12:02:38.776Z,-1.17
2019-01-25T12:03:38.741Z,-1.02
2019-01-25T12:04:38.704Z,-1.15
2019-01-25T12:05:38.668Z,-1.16
2019-01-25T12:06:38.628Z,-1.28
2019-01-25T12:07:38.591Z,-1.30
2019-01-25T12:08:38.555Z,-1.23
2019-01-25T12:09:38.526Z,-1.28
2019-01-25T12:10:38.481Z,-1.33
2019-01-25T12:11:38.444Z,-1.38
2019-01-25T12:12:38.407Z,-1.40
2019-01-25T12:13:38.370Z,-1.54
2019-01-25T12:14:38.331Z,-1.58
2019-01-25T12:15:38.295Z,-1.54
2019-01-25T12:16:38.257Z,-1.54
2019-01-25T12:17:38.224Z,-1.56
2019-01-25T12:18:38.182Z,-1.55
2019-01-25T12:19:38.145Z,-1.41
2019-01-25T12:20:38.110Z,-1.41
2019-01-25T12:21:38.070Z,-1.30
2019-01-25T12:22:38.058Z,-1.35
2019-01-25T12:23:37.996Z,-1.35
2019-01-25T12:24:37.960Z,-1.23
2019-01-25T12:25:37.930Z,-1.27
2019-01-25T12:26:37.883Z,-1.13
2019-01-25T12:27:37.846Z,-1.10
2019-01-25T12:28:37.810Z,-1.22
2019-01-25T12:29:37.775Z,-1.23
2019-01-25T12:30:38.366Z,-1.19
2019-01-25T12:31:37.697Z,-1.02
2019-01-25T12:32:37.660Z,-1.13
2019-01-25T12:33:37.627Z,-1.17
2019-01-25T12:34:37.585Z,-1.19
2019-01-25T12:35:37.550Z,-1.19
2019-01-25T12:36:37.511Z,-1.17
2019-01-25T12:37:37.475Z,-1.16
2019-01-25T12:38:37.437Z,-1.07
2019-01-25T12:39:37.401Z,-1.09
2019-01-25T12:40:41.798Z,-1.13
2019-01-25T12:41:37.326Z,-1.19
2019-01-25T12:42:37.288Z,-1.13
2019-01-25T12:43:37.254Z,-1.30
2019-01-25T12:44:37.214Z,-1.20
2019-01-25T12:45:37.177Z,-1.23
2019-01-25T12:46:37.140Z,-1.23
2019-01-25T12:47:37.103Z,-1.28
2019-01-25T12:48:37.067Z,-1.30
2019-01-25T12:49:37.028Z,-1.30
2019-01-25T12:50:36.998Z,-1.38
2019-01-25T12:51:36.955Z,-1.48
2019-01-25T12:52:36.920Z,-1.49